createdAt,value
2018-02-14T00:00:42.143Z,72.80
2018-02-14T00:03:10.182Z,73.50
2018-02-14T00:05:38.218Z,73.40
2018-02-14T00:08:06.172Z,72.90
2018-02-14T00:10:34.168Z,72.30
2018-02-14T00:13:02.168Z,73.00
2018-02-14T00:15:30.160Z,72.90
2018-02-14T00:17:58.940Z,71.90
2018-02-14T00:20:26.932Z,71.90
2018-02-14T00:22:54.940Z,71.70
2018-02-14T00:25:23.711Z,71.90
2018-02-14T00:27:51.721Z,71.90
2018-02-14T00:30:20.475Z,71.90
2018-02-14T00:32:48.484Z,71.80
2018-02-14T00:35:16.492Z,71.50
2018-02-14T00:37:45.251Z,70.70
2018-02-14T00:40:13.264Z,70.60
2018-02-14T00:42:42.020Z,70.40
2018-02-14T00:45:10.032Z,70.30
2018-02-14T00:47:38.038Z,71.60
2018-02-14T00:50:06.788Z,72.40
2018-02-14T00:52:34.800Z,72.40
2018-02-14T00:55:02.792Z,72.10
2018-02-14T00:57:31.572Z,71.60
2018-02-14T00:59:59.576Z,71.60
2018-02-14T01:02:28.340Z,70.80
2018-02-14T01:04:56.344Z,70.70
2018-02-14T01:07:24.323Z,70.40
2018-02-14T01:09:52.328Z,69.80
2018-02-14T01:12:21.092Z,69.80
2018-02-14T01:14:49.097Z,69.70
2018-02-14T01:17:17.123Z,70.10
2018-02-14T01:19:45.120Z,70.20
2018-02-14T01:22:13.136Z,69.50
2018-02-14T01:24:41.128Z,69.50
2018-02-14T01:27:09.132Z,70.40
2018-02-14T01:29:37.896Z,71.60
2018-02-14T01:32:05.896Z,71.50
2018-02-14T01:34:33.904Z,71.50
2018-02-14T01:37:01.900Z,71.90
2018-02-14T01:39:29.893Z,72.30
2018-02-14T01:41:57.913Z,73.10
2018-02-14T01:44:25.912Z,73.40
2018-02-14T01:46:53.917Z,72.90
2018-02-14T01:49:21.921Z,71.90
2018-02-14T01:51:49.920Z,70.90
2018-02-14T01:54:17.924Z,71.10
2018-02-14T01:56:45.930Z,71.80
2018-02-14T01:59:14.197Z,71.70
2018-02-14T02:01:42.176Z,72.70
2018-02-14T02:04:10.176Z,71.90
2018-02-14T02:06:38.182Z,71.70
2018-02-14T02:09:06.946Z,71.00
2018-02-14T02:11:34.983Z,70.90
2018-02-14T02:14:02.986Z,70.80
2018-02-14T02:16:30.987Z,70.40
2018-02-14T02:18:58.982Z,70.00
2018-02-14T02:21:27.000Z,69.80
2018-02-14T02:23:55.024Z,70.00
2018-02-14T02:26:23.003Z,69.80
2018-02-14T02:28:51.015Z,69.50
2018-02-14T02:31:19.004Z,70.20
2018-02-14T02:33:47.025Z,70.20
2018-02-14T02:36:15.033Z,69.30
2018-02-14T02:38:43.037Z,69.30
2018-02-14T02:41:11.032Z,69.30
2018-02-14T02:43:39.032Z,69.20
2018-02-14T02:46:07.888Z,69.20
2018-02-14T02:48:35.893Z,69.20
2018-02-14T02:51:03.883Z,69.30
2018-02-14T02:53:31.887Z,69.80
2018-02-14T02:56:00.670Z,70.20
2018-02-14T02:58:28.668Z,70.10
2018-02-14T03:00:57.431Z,71.30
2018-02-14T03:03:25.444Z,71.30
2018-02-14T03:05:54.224Z,72.70
2018-02-14T03:08:22.204Z,72.60
2018-02-14T03:10:50.220Z,73.00
2018-02-14T03:13:18.982Z,72.80
2018-02-14T03:15:46.983Z,72.60
2018-02-14T03:18:15.764Z,72.70
2018-02-14T03:20:43.764Z,72.50
2018-02-14T03:23:11.776Z,72.30
2018-02-14T03:25:39.771Z,72.50
2018-02-14T03:28:07.768Z,73.10
2018-02-14T03:30:35.783Z,73.10
2018-02-14T03:33:03.784Z,73.10
2018-02-14T03:35:32.554Z,73.40
2018-02-14T03:38:01.357Z,71.90
2018-02-14T03:40:29.355Z,71.90
2018-02-14T03:42:57.370Z,71.80
2018-02-14T03:45:25.365Z,71.90
2018-02-14T03:47:53.363Z,71.50
2018-02-14T03:50:21.364Z,72.50
2018-02-14T03:52:49.373Z,72.70
2018-02-14T03:55:17.372Z,72.40
2018-02-14T03:57:46.144Z,72.50
2018-02-14T04:00:14.151Z,72.50
2018-02-14T04:02:42.915Z,73.30
2018-02-14T04:05:10.928Z,73.10
2018-02-14T04:07:38.930Z,73.70
2018-02-14T04:10:07.694Z,73.10
2018-02-14T04:12:35.699Z,73.00
2018-02-14T04:15:04.463Z,72.60
2018-02-14T04:17:32.459Z,72.50
2018-02-14T04:20:00.463Z,71.60
2018-02-14T04:22:28.466Z,71.80
2018-02-14T04:24:56.453Z,71.10
2018-02-14T04:27:24.467Z,71.50
2018-02-14T04:29:52.488Z,72.50
2018-02-14T04:32:20.488Z,73.50
2018-02-14T04:34:49.265Z,74.20
2018-02-14T04:37:17.284Z,74.20
2018-02-14T04:39:45.292Z,73.80
2018-02-14T04:42:13.309Z,74.00
2018-02-14T04:44:41.324Z,74.40
2018-02-14T04:47:10.087Z,74.20
2018-02-14T04:49:38.086Z,74.10
2018-02-14T04:52:06.097Z,74.20
2018-02-14T04:54:34.095Z,75.10
2018-02-14T04:57:02.098Z,74.20
2018-02-14T04:59:30.106Z,73.70
2018-02-14T05:01:58.095Z,73.40
2018-02-14T05:04:26.871Z,75.20
2018-02-14T05:06:54.874Z,75.20
2018-02-14T05:09:22.872Z,76.00
2018-02-14T05:11:51.643Z,76.70
2018-02-14T05:14:19.628Z,76.50
2018-02-14T05:16:47.652Z,76.50
2018-02-14T05:19:16.413Z,76.50
2018-02-14T05:21:44.429Z,76.40
2018-02-14T05:24:13.214Z,76.50
2018-02-14T05:26:41.204Z,76.50
2018-02-14T05:29:09.979Z,76.50
2018-02-14T05:31:37.972Z,76.40
2018-02-14T05:34:05.976Z,76.50
2018-02-14T05:36:34.736Z,76.50
2018-02-14T05:39:02.760Z,76.40
2018-02-14T05:41:31.520Z,76.50
2018-02-14T05:43:59.541Z,76.40
2018-02-14T05:46:28.316Z,75.00
2018-02-14T05:48:56.320Z,74.90
2018-02-14T05:51:25.105Z,73.50
2018-02-14T05:53:53.111Z,73.50
2018-02-14T05:56:21.870Z,72.80
2018-02-14T05:58:49.876Z,72.70
2018-02-14T06:01:17.880Z,72.70
2018-02-14T06:03:46.651Z,73.10
2018-02-14T06:06:14.636Z,73.10
2018-02-14T06:08:42.655Z,73.00
2018-02-14T06:11:11.407Z,72.20
2018-02-14T06:13:39.410Z,72.10
2018-02-14T06:16:07.401Z,72.70
2018-02-14T06:18:36.176Z,74.10
2018-02-14T06:21:04.184Z,74.00
2018-02-14T06:23:32.947Z,73.30
2018-02-14T06:26:00.949Z,73.30
2018-02-14T06:28:28.944Z,73.00
2018-02-14T06:30:56.948Z,73.20
2018-02-14T06:33:24.960Z,72.80
2018-02-14T06:35:52.952Z,73.20
2018-02-14T06:38:20.956Z,73.40
2018-02-14T06:40:50.473Z,74.50
2018-02-14T06:43:18.473Z,74.40
2018-02-14T06:45:46.474Z,74.70
2018-02-14T06:48:15.232Z,74.10
2018-02-14T06:50:43.246Z,74.00
2018-02-14T06:53:11.248Z,74.40
2018-02-14T06:55:39.260Z,73.50
2018-02-14T06:58:07.264Z,73.00
2018-02-14T07:00:35.256Z,73.40
2018-02-14T07:03:03.274Z,74.10
2018-02-14T07:05:32.039Z,74.50
2018-02-14T07:08:00.045Z,74.30
2018-02-14T07:10:28.808Z,75.30
2018-02-14T07:12:57.810Z,75.30
2018-02-14T07:15:25.808Z,75.60
2018-02-14T07:17:53.827Z,75.80
2018-02-14T07:20:22.629Z,75.90
2018-02-14T07:22:51.403Z,75.80
2018-02-14T07:25:19.411Z,75.70
2018-02-14T07:27:48.184Z,76.00
2018-02-14T07:30:16.204Z,76.00
2018-02-14T07:32:44.195Z,75.70
2018-02-14T07:35:12.225Z,75.80
2018-02-14T07:37:40.248Z,75.60
2018-02-14T07:40:09.004Z,73.50
2018-02-14T07:42:37.016Z,73.50
2018-02-14T07:45:05.788Z,71.50
2018-02-14T07:47:33.803Z,70.90
2018-02-14T07:50:02.561Z,71.20
2018-02-14T07:52:30.566Z,71.00
2018-02-14T07:54:58.555Z,72.00
2018-02-14T07:57:26.559Z,71.20
2018-02-14T07:59:55.312Z,69.60
2018-02-14T08:02:23.307Z,69.60
2018-02-14T08:04:51.301Z,68.50
2018-02-14T08:07:20.083Z,67.10
2018-02-14T08:09:48.112Z,67.10
2018-02-14T08:12:16.908Z,67.30
2018-02-14T08:14:45.690Z,68.10
2018-02-14T08:17:13.692Z,68.10
2018-02-14T08:19:42.464Z,67.20
2018-02-14T08:22:10.467Z,67.10
2018-02-14T08:24:39.232Z,67.20
2018-02-14T08:27:07.243Z,67.10
2018-02-14T08:29:35.244Z,66.70
2018-02-14T08:32:03.696Z,66.70
2018-02-14T08:34:32.205Z,66.20
2018-02-14T08:37:00.208Z,65.80
2018-02-14T08:39:29.013Z,64.40
2018-02-14T08:41:56.981Z,64.30
2018-02-14T08:44:25.751Z,65.00
2018-02-14T08:46:53.757Z,64.90
2018-02-14T08:49:21.782Z,65.80
2018-02-14T08:51:49.801Z,65.70
2018-02-14T08:54:17.817Z,63.10
2018-02-14T08:56:46.621Z,62.40
2018-02-14T08:59:14.604Z,62.20
2018-02-14T09:01:43.376Z,63.10
2018-02-14T09:04:11.381Z,63.00
2018-02-14T09:06:40.165Z,62.00
2018-02-14T09:09:08.157Z,61.90
2018-02-14T09:11:36.162Z,62.80
2018-02-14T09:14:04.924Z,61.70
2018-02-14T09:16:32.923Z,61.70
2018-02-14T09:19:01.704Z,59.40
2018-02-14T09:21:29.691Z,59.90
2018-02-14T09:23:59.204Z,62.50
2018-02-14T09:26:27.195Z,62.50
2018-02-14T09:28:55.220Z,62.10
2018-02-14T09:31:23.240Z,59.80
2018-02-14T09:33:51.241Z,61.00
2018-02-14T09:36:19.243Z,60.10
2018-02-14T09:38:48.016Z,58.50
2018-02-14T09:41:16.014Z,58.50
2018-02-14T09:43:44.011Z,59.00
2018-02-14T09:46:12.767Z,58.50
2018-02-14T09:48:40.776Z,58.50
2018-02-14T09:51:08.763Z,57.70
2018-02-14T09:53:36.757Z,59.40
2018-02-14T09:56:05.516Z,55.90
2018-02-14T09:58:33.524Z,55.90
2018-02-14T10:01:01.504Z,56.00
2018-02-14T10:03:29.496Z,57.70
2018-02-14T10:05:57.492Z,54.40
2018-02-14T10:08:26.256Z,53.80
2018-02-14T10:10:54.248Z,53.70
2018-02-14T10:13:22.256Z,52.90
2018-02-14T10:15:51.028Z,53.40
2018-02-14T10:18:19.016Z,53.50
2018-02-14T10:20:47.020Z,53.10
2018-02-14T10:23:15.767Z,51.20
2018-02-14T10:25:43.784Z,51.20
2018-02-14T10:28:11.768Z,49.30
2018-02-14T10:30:39.771Z,47.40
2018-02-14T10:33:08.552Z,48.10
2018-02-14T10:35:36.523Z,48.00
2018-02-14T10:38:04.541Z,46.80
2018-02-14T10:40:33.288Z,44.50
2018-02-14T10:43:01.296Z,44.40
2018-02-14T10:45:29.318Z,47.00
2018-02-14T10:47:58.902Z,44.70
2018-02-14T10:50:26.905Z,44.80
2018-02-14T10:52:55.659Z,44.60
2018-02-14T10:55:23.660Z,44.60
2018-02-14T10:57:51.664Z,44.60
2018-02-14T11:00:26.245Z,45.90
2018-02-14T11:02:59.861Z,45.80
2018-02-14T11:05:32.780Z,45.30
2018-02-14T11:08:00.780Z,45.30
2018-02-14T11:10:28.768Z,42.30
2018-02-14T11:12:56.805Z,42.50
2018-02-14T11:15:24.791Z,43.20
2018-02-14T11:17:52.821Z,43.60
2018-02-14T11:20:20.829Z,48.30
2018-02-14T11:22:49.584Z,43.20
2018-02-14T11:25:17.584Z,43.10
2018-02-14T11:27:45.572Z,42.70
2018-02-14T11:30:13.573Z,44.60
2018-02-14T11:32:42.340Z,40.00
2018-02-14T11:35:10.342Z,39.80
2018-02-14T11:37:38.332Z,41.10
2018-02-14T11:40:07.488Z,39.60
2018-02-14T11:42:35.493Z,39.50
2018-02-14T11:45:03.479Z,40.10
2018-02-14T11:47:31.473Z,38.30
2018-02-14T11:49:59.467Z,41.80
2018-02-14T11:52:28.236Z,41.80
2018-02-14T11:54:56.241Z,41.60
2018-02-14T11:57:24.242Z,39.10
2018-02-14T11:59:52.997Z,37.30
2018-02-14T12:02:21.003Z,37.20
2018-02-14T12:04:49.008Z,36.40
2018-02-14T12:07:17.760Z,35.30
2018-02-14T12:09:45.763Z,35.20
2018-02-14T12:12:13.763Z,34.60
2018-02-14T12:14:41.798Z,34.20
2018-02-14T12:17:09.795Z,34.00
2018-02-14T12:19:37.827Z,33.90
2018-02-14T12:22:05.780Z,33.00
2018-02-14T12:24:34.539Z,34.00
2018-02-14T12:27:02.535Z,34.10
2018-02-14T12:29:30.549Z,38.20
2018-02-14T12:31:58.548Z,35.70
2018-02-14T12:34:27.312Z,33.50
2018-02-14T12:36:55.316Z,33.30
2018-02-14T12:39:23.304Z,32.10
2018-02-14T12:41:52.077Z,36.60
2018-02-14T12:44:20.079Z,36.30
2018-02-14T12:46:48.080Z,33.60
2018-02-14T12:49:16.837Z,31.90
2018-02-14T12:51:44.837Z,31.90
2018-02-14T12:54:13.534Z,33.70
2018-02-14T12:56:41.528Z,35.30
2018-02-14T12:59:09.511Z,33.10
2018-02-14T13:01:37.516Z,33.20
2018-02-14T13:04:05.532Z,34.80
2018-02-14T13:06:33.521Z,31.20
2018-02-14T13:09:01.930Z,33.30
2018-02-14T13:11:29.902Z,30.90
2018-02-14T13:13:57.908Z,31.50
2018-02-14T13:16:25.908Z,31.50
2018-02-14T13:18:54.665Z,28.60
2018-02-14T13:21:22.668Z,28.50
2018-02-14T13:23:51.420Z,31.70
2018-02-14T13:26:19.419Z,31.70
2018-02-14T13:28:47.461Z,30.80
2018-02-14T13:31:16.227Z,29.50
2018-02-14T13:33:44.223Z,29.60
2018-02-14T13:36:12.216Z,28.00
2018-02-14T13:38:40.979Z,27.20
2018-02-14T13:41:08.999Z,27.20
2018-02-14T13:43:36.976Z,28.70
2018-02-14T13:46:04.984Z,27.60
2018-02-14T13:48:32.972Z,28.60
2018-02-14T13:51:00.972Z,30.10
2018-02-14T13:53:28.968Z,30.00
2018-02-14T13:55:56.969Z,29.20
2018-02-14T13:58:24.955Z,28.80
2018-02-14T14:00:52.952Z,27.90
2018-02-14T14:03:20.948Z,28.00
2018-02-14T14:05:49.715Z,27.30
2018-02-14T14:08:17.697Z,27.20
2018-02-14T14:10:45.700Z,28.10
2018-02-14T14:13:13.692Z,26.60
2018-02-14T14:15:42.464Z,27.70
2018-02-14T14:18:10.444Z,27.70
2018-02-14T14:20:38.444Z,26.80
2018-02-14T14:23:06.433Z,26.10
2018-02-14T14:25:34.441Z,27.50
2018-02-14T14:28:02.424Z,27.20
2018-02-14T14:30:30.431Z,27.70
2018-02-14T14:32:58.415Z,27.10
2018-02-14T14:35:26.424Z,26.50
2018-02-14T14:37:54.408Z,26.40
2018-02-14T14:40:22.409Z,27.60
2018-02-14T14:42:50.408Z,27.30
2018-02-14T14:45:19.158Z,26.90
2018-02-14T14:47:47.170Z,26.90
2018-02-14T14:50:15.160Z,26.90
2018-02-14T14:52:43.928Z,26.40
2018-02-14T14:55:11.916Z,26.40
2018-02-14T14:57:39.920Z,25.80
2018-02-14T15:00:07.900Z,26.00
2018-02-14T15:02:35.905Z,26.90
2018-02-14T15:05:04.660Z,26.90
2018-02-14T15:07:32.643Z,26.80
2018-02-14T15:10:00.648Z,28.20
2018-02-14T15:12:28.640Z,26.70
2018-02-14T15:14:57.409Z,27.20
2018-02-14T15:17:25.413Z,27.20
2018-02-14T15:19:53.396Z,27.40
2018-02-14T15:22:21.395Z,27.20
2018-02-14T15:24:50.161Z,27.90
2018-02-14T15:27:18.164Z,27.80
2018-02-14T15:29:46.173Z,27.30
2018-02-14T15:32:14.156Z,27.30
2018-02-14T15:34:42.220Z,27.10
2018-02-14T15:37:10.986Z,28.40
2018-02-14T15:39:38.984Z,28.40
2018-02-14T15:42:06.964Z,29.80
2018-02-14T15:44:34.967Z,29.60
2018-02-14T15:47:03.741Z,29.20
2018-02-14T15:49:31.729Z,29.20
2018-02-14T15:51:59.740Z,28.70
2018-02-14T15:54:28.479Z,30.90
2018-02-14T15:56:56.480Z,30.80
2018-02-14T15:59:24.476Z,30.40
2018-02-14T16:01:52.464Z,32.00
2018-02-14T16:04:20.470Z,33.60
2018-02-14T16:06:49.224Z,33.40
2018-02-14T16:09:17.231Z,33.30
2018-02-14T16:11:45.227Z,33.10
2018-02-14T16:14:13.983Z,34.80
2018-02-14T16:16:41.987Z,34.60
2018-02-14T16:19:09.972Z,35.00
2018-02-14T16:21:40.280Z,35.50
2018-02-14T16:24:08.280Z,35.50
2018-02-14T16:26:36.285Z,35.10
2018-02-14T16:29:04.292Z,35.40
2018-02-14T16:31:33.048Z,36.60
2018-02-14T16:34:01.081Z,36.60
2018-02-14T16:36:29.076Z,37.20
2018-02-14T16:38:57.075Z,38.40
2018-02-14T16:41:25.068Z,38.00
2018-02-14T16:43:53.062Z,38.60
2018-02-14T16:46:21.060Z,39.40
2018-02-14T16:48:50.582Z,39.20
2018-02-14T16:51:18.570Z,39.20
2018-02-14T16:53:46.568Z,39.80
2018-02-14T16:56:15.325Z,40.00
2018-02-14T16:58:43.324Z,40.00
2018-02-14T17:01:12.832Z,41.00
2018-02-14T17:03:40.820Z,40.90
2018-02-14T17:06:08.820Z,41.20
2018-02-14T17:08:37.591Z,42.30
2018-02-14T17:11:05.596Z,42.30
2018-02-14T17:13:33.592Z,42.50
2018-02-14T17:16:02.364Z,43.70
2018-02-14T17:18:30.355Z,43.60
2018-02-14T17:20:58.340Z,44.20
2018-02-14T17:23:26.335Z,44.60
2018-02-14T17:25:55.093Z,45.40
2018-02-14T17:28:23.121Z,45.30
2018-02-14T17:30:51.884Z,45.10
2018-02-14T17:33:19.886Z,45.10
2018-02-14T17:35:47.897Z,45.80
2018-02-14T17:38:15.901Z,45.50
2018-02-14T17:40:43.913Z,45.30
2018-02-14T17:43:11.904Z,45.10
2018-02-14T17:45:39.955Z,45.30
2018-02-14T17:48:08.715Z,45.80
2018-02-14T17:50:37.479Z,46.20
2018-02-14T17:53:05.494Z,46.20
2018-02-14T17:55:33.481Z,46.70
2018-02-14T17:58:01.480Z,47.00
2018-02-14T18:00:29.475Z,47.50
2018-02-14T18:02:57.475Z,47.40
2018-02-14T18:05:25.469Z,47.40
2018-02-14T18:07:53.469Z,47.40
2018-02-14T18:10:21.456Z,47.30
2018-02-14T18:12:49.448Z,48.30
2018-02-14T18:15:17.445Z,48.80
2018-02-14T18:17:46.212Z,49.20
2018-02-14T18:20:15.171Z,49.20
2018-02-14T18:22:43.156Z,50.20
2018-02-14T18:25:11.235Z,51.20
2018-02-14T18:27:39.187Z,50.70
2018-02-14T18:30:07.956Z,50.70
2018-02-14T18:32:35.946Z,50.50
2018-02-14T18:35:03.952Z,50.10
2018-02-14T18:37:31.938Z,50.30
2018-02-14T18:39:59.981Z,50.50
2018-02-14T18:42:27.932Z,51.30
2018-02-14T18:44:55.936Z,51.00
2018-02-14T18:47:23.936Z,50.70
2018-02-14T18:49:51.952Z,50.70
2018-02-14T18:52:21.451Z,51.00
2018-02-14T18:54:49.452Z,50.90
2018-02-14T18:57:17.489Z,51.40
2018-02-14T18:59:45.488Z,51.90
2018-02-14T19:02:13.487Z,52.00
2018-02-14T19:04:41.492Z,52.10
2018-02-14T19:07:10.249Z,51.90
2018-02-14T19:09:38.257Z,51.80
2018-02-14T19:12:06.256Z,52.00
2018-02-14T19:14:34.307Z,52.20
2018-02-14T19:17:02.296Z,52.70
2018-02-14T19:19:30.317Z,52.70
2018-02-14T19:22:00.996Z,52.70
2018-02-14T19:24:29.004Z,52.60
2018-02-14T19:26:57.004Z,53.00
2018-02-14T19:29:25.027Z,53.20
2018-02-14T19:31:53.033Z,53.70
2018-02-14T19:34:21.040Z,54.50
2018-02-14T19:36:49.049Z,55.10
2018-02-14T19:39:18.736Z,54.70
2018-02-14T19:41:46.754Z,54.70
2018-02-14T19:44:14.735Z,54.50
2018-02-14T19:46:42.762Z,54.40
2018-02-14T19:49:10.760Z,58.50
2018-02-14T19:51:38.748Z,56.10
2018-02-14T19:54:06.757Z,55.90
2018-02-14T19:56:34.768Z,55.70
2018-02-14T19:59:03.517Z,55.40
2018-02-14T20:01:31.520Z,55.30
2018-02-14T20:03:59.516Z,55.10
2018-02-14T20:06:27.528Z,55.20
2018-02-14T20:08:55.528Z,56.20
2018-02-14T20:11:23.619Z,55.80
2018-02-14T20:13:51.616Z,55.80
2018-02-14T20:16:19.640Z,56.10
2018-02-14T20:18:48.392Z,56.30
2018-02-14T20:21:16.409Z,56.20
2018-02-14T20:23:44.628Z,56.80
2018-02-14T20:26:12.641Z,57.10
2018-02-14T20:28:40.628Z,56.80
2018-02-14T20:31:08.640Z,57.30
2018-02-14T20:33:36.631Z,57.60
2018-02-14T20:36:04.640Z,57.90
2018-02-14T20:38:32.640Z,58.20
2018-02-14T20:41:01.564Z,58.40
2018-02-14T20:43:29.567Z,58.60
2018-02-14T20:45:57.576Z,58.80
2018-02-14T20:48:26.354Z,60.20
2018-02-14T20:50:54.344Z,60.20
2018-02-14T20:53:22.354Z,60.10
2018-02-14T20:55:51.116Z,59.50
2018-02-14T20:58:19.121Z,59.40
2018-02-14T21:00:47.144Z,59.40
2018-02-14T21:03:15.144Z,59.30
2018-02-14T21:05:43.148Z,59.60
2018-02-14T21:08:11.160Z,59.20
2018-02-14T21:10:39.942Z,59.20
2018-02-14T21:13:07.939Z,59.20
2018-02-14T21:15:36.712Z,61.60
2018-02-14T21:18:04.726Z,61.40
2018-02-14T21:20:32.739Z,61.90
2018-02-14T21:23:00.792Z,61.90
2018-02-14T21:25:29.570Z,62.30
2018-02-14T21:27:57.619Z,62.30
2018-02-14T21:30:26.365Z,63.40
2018-02-14T21:32:54.355Z,63.20
2018-02-14T21:35:23.124Z,64.90
2018-02-14T21:37:51.117Z,64.80
2018-02-14T21:40:19.132Z,65.50
2018-02-14T21:42:47.907Z,64.70
2018-02-14T21:45:15.887Z,64.60
2018-02-14T21:47:43.904Z,64.20
2018-02-14T21:50:11.901Z,64.30
2018-02-14T21:52:39.916Z,63.80
2018-02-14T21:55:08.296Z,63.70
2018-02-14T21:57:36.304Z,63.70
2018-02-14T22:00:04.307Z,63.90
2018-02-14T22:02:32.308Z,63.80
2018-02-14T22:05:00.304Z,63.30
2018-02-14T22:07:28.316Z,63.70
2018-02-14T22:09:56.325Z,63.70
2018-02-14T22:12:24.315Z,63.70
2018-02-14T22:14:52.327Z,64.10
2018-02-14T22:17:20.315Z,64.40
2018-02-14T22:19:48.324Z,63.80
2018-02-14T22:22:16.325Z,63.80
2018-02-14T22:24:45.942Z,63.20
2018-02-14T22:27:13.948Z,63.20
2018-02-14T22:29:41.952Z,63.60
2018-02-14T22:32:10.724Z,63.30
2018-02-14T22:34:38.715Z,63.20
2018-02-14T22:37:07.488Z,63.70
2018-02-14T22:39:35.480Z,63.60
2018-02-14T22:42:03.488Z,63.70
2018-02-14T22:44:32.281Z,65.40
2018-02-14T22:47:00.295Z,65.30
2018-02-14T22:49:28.311Z,65.30
2018-02-14T22:51:56.323Z,65.20
2018-02-14T22:54:24.508Z,65.00
2018-02-14T22:56:52.489Z,64.50
2018-02-14T22:59:20.537Z,65.00
2018-02-14T23:01:48.535Z,65.80
2018-02-14T23:04:16.537Z,65.80
2018-02-14T23:06:44.544Z,67.00
2018-02-14T23:09:13.332Z,69.10
2018-02-14T23:11:42.115Z,69.10
2018-02-14T23:14:10.659Z,69.70
2018-02-14T23:16:39.304Z,68.90
2018-02-14T23:19:07.313Z,69.00
2018-02-14T23:21:36.083Z,68.30
2018-02-14T23:24:04.093Z,68.30
2018-02-14T23:26:32.860Z,70.20
2018-02-14T23:29:00.877Z,69.70
2018-02-14T23:31:28.864Z,69.20
2018-02-14T23:33:57.648Z,69.70
2018-02-14T23:36:25.652Z,69.60
2018-02-14T23:38:54.429Z,70.80
2018-02-14T23:41:22.428Z,70.60
2018-02-14T23:43:51.187Z,69.80
2018-02-14T23:46:19.211Z,69.70
2018-02-14T23:48:47.212Z,69.70
2018-02-14T23:51:15.211Z,69.70
2018-02-14T23:53:43.220Z,69.80
2018-02-14T23:56:11.208Z,69.60
2018-02-14T23:58:39.230Z,69.60
